Terminal Aerodrome Forecast
Issued by NWS

Home | Current Version | Previous Version | Text Only | Print | Product List | Glossary On
Versions: 1 2 3 4 5 6 7 8 9 10 11 12 13 14 15 16
000
FTUS43 KILX 042340
TAFCMI
TAF
KCMI 042340Z 0500/0524 25006KT P6SM VCTS SCT050CB BKN120
      TEMPO 0500/0502 VRB15G25KT 4SM TSRA BR BKN050CB
     FM050200 VRB03KT P6SM SCT250
     FM051000 VRB03KT 4SM BR SKC
     FM051400 18006KT P6SM BKN150=

USA.gov is the U.S. government's official web portal to all federal, state and local government web resources and services.